createdAt,value
2022-08-12T00:00:59.814Z,19.70
2022-08-12T00:04:10.186Z,19.70
2022-08-12T00:07:20.450Z,19.60
2022-08-12T00:10:30.661Z,19.60
2022-08-12T00:13:40.957Z,19.60
2022-08-12T00:16:51.370Z,19.50
2022-08-12T00:20:01.700Z,19.50
2022-08-12T00:23:12.488Z,19.50
2022-08-12T00:26:24.598Z,19.40
2022-08-12T00:29:35.052Z,19.50
2022-08-12T00:32:54.239Z,19.50
2022-08-12T00:36:34.680Z,19.50
2022-08-12T00:39:43.966Z,19.50
2022-08-12T00:42:39.551Z,19.50
2022-08-12T00:45:12.139Z,19.50
2022-08-12T00:47:45.250Z,19.50
2022-08-12T00:50:21.161Z,19.40
2022-08-12T00:52:53.630Z,19.40
2022-08-12T00:55:25.734Z,19.40
2022-08-12T00:57:58.394Z,19.40
2022-08-12T01:00:34.620Z,19.30
2022-08-12T01:03:10.773Z,19.30
2022-08-12T01:06:09.736Z,19.30
2022-08-12T01:09:20.523Z,19.30
2022-08-12T01:12:12.885Z,19.30
2022-08-12T01:14:45.761Z,19.20
2022-08-12T01:17:18.197Z,19.20
2022-08-12T01:19:55.984Z,19.10
2022-08-12T01:22:35.821Z,19.10
2022-08-12T01:25:23.142Z,19.00
2022-08-12T01:27:58.687Z,19.00
2022-08-12T01:30:33.917Z,19.00
2022-08-12T01:33:08.635Z,18.90
2022-08-12T01:35:58.080Z,18.90
2022-08-12T01:38:47.265Z,18.80
2022-08-12T01:41:23.702Z,18.70
2022-08-12T01:44:02.296Z,18.70
2022-08-12T01:46:50.856Z,18.60
2022-08-12T01:50:01.468Z,18.50
2022-08-12T01:53:01.124Z,18.50
2022-08-12T01:55:45.248Z,18.40
2022-08-12T01:58:57.371Z,18.40
2022-08-12T02:01:52.932Z,18.30
2022-08-12T02:05:07.511Z,18.30
2022-08-12T02:08:41.213Z,18.30
2022-08-12T02:11:38.016Z,18.30
2022-08-12T02:14:28.724Z,18.30
2022-08-12T02:17:54.665Z,18.30
2022-08-12T02:21:01.712Z,18.30
2022-08-12T02:23:40.077Z,18.30
2022-08-12T02:26:16.525Z,18.30
2022-08-12T02:28:49.483Z,18.30
2022-08-12T02:31:26.684Z,18.30
2022-08-12T02:34:00.209Z,18.30
2022-08-12T02:36:40.629Z,18.20
2022-08-12T02:39:16.298Z,18.20
2022-08-12T02:41:52.529Z,18.20
2022-08-12T02:44:28.289Z,18.10
2022-08-12T02:47:07.250Z,18.10
2022-08-12T02:49:56.130Z,18.10
2022-08-12T02:52:32.325Z,18.00
2022-08-12T02:55:34.192Z,18.00
2022-08-12T02:58:12.636Z,18.00
2022-08-12T03:00:48.038Z,18.00
2022-08-12T03:03:22.312Z,18.00
2022-08-12T03:06:03.398Z,18.00
2022-08-12T03:08:43.519Z,17.90
2022-08-12T03:11:27.499Z,17.90
2022-08-12T03:14:11.158Z,17.80
2022-08-12T03:16:54.918Z,17.70
2022-08-12T03:20:10.365Z,17.70
2022-08-12T03:22:40.764Z,17.60
2022-08-12T03:25:27.310Z,17.50
2022-08-12T03:28:00.938Z,17.50
2022-08-12T03:30:34.659Z,17.40
2022-08-12T03:33:07.522Z,17.40
2022-08-12T03:35:46.270Z,17.30
2022-08-12T03:38:22.789Z,17.30
2022-08-12T03:41:24.004Z,17.20
2022-08-12T03:44:45.833Z,17.20
2022-08-12T03:48:11.240Z,17.10
2022-08-12T03:51:30.285Z,17.10
2022-08-12T03:54:42.606Z,17.00
2022-08-12T03:57:52.913Z,17.00
2022-08-12T04:00:46.051Z,16.90
2022-08-12T04:03:41.734Z,16.90
2022-08-12T04:06:34.847Z,16.80
2022-08-12T04:09:16.093Z,16.80
2022-08-12T04:12:11.311Z,16.70
2022-08-12T04:15:03.626Z,16.60
2022-08-12T04:17:37.861Z,16.50
2022-08-12T04:20:32.066Z,16.50
2022-08-12T04:23:05.304Z,16.50
2022-08-12T04:25:42.738Z,16.40
2022-08-12T04:28:15.062Z,16.30
2022-08-12T04:30:57.404Z,16.30
2022-08-12T04:33:30.994Z,16.40
2022-08-12T04:36:04.183Z,16.40
2022-08-12T04:38:36.887Z,16.30
2022-08-12T04:41:11.481Z,16.40
2022-08-12T04:44:01.294Z,16.30
2022-08-12T04:46:35.889Z,16.40
2022-08-12T04:49:08.442Z,16.30
2022-08-12T04:51:40.832Z,16.30
2022-08-12T04:54:14.989Z,16.30
2022-08-12T04:57:04.779Z,16.40
2022-08-12T04:59:46.711Z,16.40
2022-08-12T05:02:31.503Z,16.30
2022-08-12T05:05:05.979Z,16.40
2022-08-12T05:07:54.041Z,16.40
2022-08-12T05:10:33.968Z,16.40
2022-08-12T05:13:11.380Z,16.40
2022-08-12T05:16:03.711Z,16.40
2022-08-12T05:18:39.896Z,16.40
2022-08-12T05:21:11.936Z,16.40
2022-08-12T05:23:44.082Z,16.40
2022-08-12T05:26:16.198Z,16.50
2022-08-12T05:28:49.081Z,16.60
2022-08-12T05:31:42.494Z,16.70
2022-08-12T05:34:15.777Z,16.70
2022-08-12T05:36:48.062Z,16.80
2022-08-12T05:39:20.064Z,17.00
2022-08-12T05:41:55.033Z,17.00
2022-08-12T05:44:27.025Z,17.20
2022-08-12T05:46:59.184Z,17.30
2022-08-12T05:49:33.667Z,17.40
2022-08-12T05:52:05.800Z,17.50
2022-08-12T05:54:56.992Z,17.60
2022-08-12T05:57:29.924Z,17.70
2022-08-12T06:00:03.426Z,17.80
2022-08-12T06:02:36.573Z,18.00
2022-08-12T06:05:10.551Z,18.20
2022-08-12T06:08:01.199Z,18.50
2022-08-12T06:10:38.439Z,18.90
2022-08-12T06:13:11.690Z,19.40
2022-08-12T06:15:45.939Z,19.90
2022-08-12T06:18:19.112Z,20.50
2022-08-12T06:20:53.899Z,21.20
2022-08-12T06:23:30.611Z,21.90
2022-08-12T06:26:03.172Z,22.70
2022-08-12T06:28:35.862Z,23.40
2022-08-12T06:31:25.684Z,24.20
2022-08-12T06:35:22.608Z,24.90
2022-08-12T06:36:54.748Z,25.80
2022-08-12T06:39:26.883Z,26.70
2022-08-12T06:42:31.951Z,27.60
2022-08-12T06:45:23.768Z,28.20
2022-08-12T06:48:17.343Z,28.90
2022-08-12T06:50:53.305Z,29.30
2022-08-12T06:53:32.844Z,29.50
2022-08-12T06:56:09.266Z,29.60
2022-08-12T06:58:46.142Z,30.00
2022-08-12T07:01:18.618Z,30.70
2022-08-12T07:03:51.314Z,31.30
2022-08-12T07:06:24.044Z,32.00
2022-08-12T07:08:56.458Z,32.40
2022-08-12T07:11:29.540Z,32.70
2022-08-12T07:14:13.073Z,32.90
2022-08-12T07:16:53.231Z,33.00
2022-08-12T07:19:45.198Z,33.20
2022-08-12T07:22:17.982Z,33.20
2022-08-12T07:25:10.215Z,33.30
2022-08-12T07:28:28.145Z,33.30
2022-08-12T07:31:07.842Z,33.30
2022-08-12T07:33:41.937Z,33.40
2022-08-12T07:36:19.346Z,33.40
2022-08-12T07:38:53.510Z,33.30
2022-08-12T07:41:32.640Z,33.10
2022-08-12T07:44:07.593Z,32.70
2022-08-12T07:46:43.253Z,32.50
2022-08-12T07:49:17.442Z,32.20
2022-08-12T07:51:49.888Z,32.20
2022-08-12T07:54:22.327Z,32.40
2022-08-12T07:56:55.765Z,32.40
2022-08-12T07:59:28.459Z,32.70
2022-08-12T08:02:01.166Z,33.00
2022-08-12T08:04:53.247Z,33.10
2022-08-12T08:07:30.540Z,33.30
2022-08-12T08:10:06.808Z,33.20
2022-08-12T08:12:53.922Z,33.20
2022-08-12T08:16:01.062Z,33.00
2022-08-12T08:18:27.463Z,32.80
2022-08-12T08:21:02.145Z,32.60
2022-08-12T08:23:56.404Z,32.50
2022-08-12T08:26:48.708Z,32.40
2022-08-12T08:29:23.937Z,31.70
2022-08-12T08:32:01.041Z,31.20
2022-08-12T08:34:53.950Z,31.00
2022-08-12T08:37:31.072Z,31.10
2022-08-12T08:40:25.034Z,30.90
2022-08-12T08:43:16.774Z,30.90
2022-08-12T08:45:48.833Z,31.00
2022-08-12T08:48:22.224Z,31.00
2022-08-12T08:51:04.470Z,31.00
2022-08-12T08:53:39.210Z,31.10
2022-08-12T08:56:12.305Z,31.10
2022-08-12T08:58:46.072Z,31.00
2022-08-12T09:01:21.483Z,30.70
2022-08-12T09:05:13.458Z,30.60
2022-08-12T09:06:53.469Z,30.50
2022-08-12T09:09:42.930Z,30.20
2022-08-12T09:12:45.319Z,30.00
2022-08-12T09:15:55.102Z,29.90
2022-08-12T09:18:33.767Z,29.70
2022-08-12T09:21:06.379Z,29.50
2022-08-12T09:23:59.925Z,29.30
2022-08-12T09:26:32.035Z,29.30
2022-08-12T09:29:14.244Z,29.20
2022-08-12T09:32:07.888Z,29.30
2022-08-12T09:34:42.099Z,29.40
2022-08-12T09:37:18.732Z,29.40
2022-08-12T09:40:04.239Z,29.50
2022-08-12T09:43:18.682Z,29.60
2022-08-12T09:46:22.417Z,29.60
2022-08-12T09:48:59.213Z,29.50
2022-08-12T09:51:37.595Z,29.40
2022-08-12T09:54:34.326Z,29.50
2022-08-12T09:58:46.130Z,29.50
2022-08-12T10:00:29.273Z,29.50
2022-08-12T10:03:31.857Z,29.50
2022-08-12T10:06:20.375Z,29.60
2022-08-12T10:09:01.467Z,29.60
2022-08-12T10:12:12.064Z,29.50
2022-08-12T10:15:05.078Z,29.40
2022-08-12T10:18:05.849Z,29.30
2022-08-12T10:20:34.126Z,29.30
2022-08-12T10:23:07.508Z,29.30
2022-08-12T10:26:34.797Z,29.40
2022-08-12T10:30:37.671Z,29.50
2022-08-12T10:32:43.974Z,29.40
2022-08-12T10:35:37.819Z,29.40
2022-08-12T10:38:33.803Z,29.30
2022-08-12T10:41:57.775Z,29.10
2022-08-12T10:44:38.171Z,29.20
2022-08-12T10:47:26.362Z,29.40
2022-08-12T10:50:28.117Z,29.60
2022-08-12T10:53:00.465Z,29.80
2022-08-12T10:55:35.574Z,29.80
2022-08-12T10:58:15.174Z,29.90
2022-08-12T11:01:49.141Z,29.90
2022-08-12T11:04:19.785Z,30.00
2022-08-12T11:07:09.474Z,30.00
2022-08-12T11:09:56.398Z,30.10
2022-08-12T11:12:59.200Z,30.20
2022-08-12T11:15:33.135Z,30.30
2022-08-12T11:18:24.762Z,30.40
2022-08-12T11:20:58.009Z,30.30
2022-08-12T11:23:36.672Z,30.20
2022-08-12T11:26:09.479Z,30.20
2022-08-12T11:28:41.573Z,30.20
2022-08-12T11:31:14.537Z,30.20
2022-08-12T11:34:05.377Z,30.30
2022-08-12T11:36:53.398Z,30.40
2022-08-12T11:39:28.495Z,30.70
2022-08-12T11:42:32.227Z,30.90
2022-08-12T11:45:06.379Z,30.90
2022-08-12T11:47:42.601Z,31.00
2022-08-12T11:50:19.559Z,31.20
2022-08-12T11:53:59.358Z,31.20
2022-08-12T11:56:05.932Z,31.30
2022-08-12T12:01:05.634Z,31.30
2022-08-12T12:02:01.305Z,31.50
2022-08-12T12:04:28.959Z,31.70
2022-08-12T12:07:07.458Z,31.90
2022-08-12T12:09:53.373Z,32.10
2022-08-12T12:12:25.825Z,32.10
2022-08-12T12:15:03.055Z,32.30
2022-08-12T12:17:40.999Z,32.20
2022-08-12T12:20:13.550Z,32.10
2022-08-12T12:22:45.574Z,32.00
2022-08-12T12:25:19.787Z,32.00
2022-08-12T12:28:05.948Z,32.10
2022-08-12T12:30:38.964Z,32.50
2022-08-12T12:33:17.697Z,32.70
2022-08-12T12:36:19.771Z,32.70
2022-08-12T12:38:43.846Z,32.50
2022-08-12T12:41:17.350Z,32.30
2022-08-12T12:44:03.731Z,32.00
2022-08-12T12:46:36.404Z,31.80
2022-08-12T12:49:11.206Z,31.60
2022-08-12T12:52:19.056Z,31.30
2022-08-12T12:54:52.653Z,31.30
2022-08-12T12:57:58.853Z,31.70
2022-08-12T13:00:21.561Z,31.80
2022-08-12T13:02:58.032Z,31.70
2022-08-12T13:05:42.566Z,31.60
2022-08-12T13:08:35.748Z,31.80
2022-08-12T13:11:08.491Z,32.00
2022-08-12T13:14:08.731Z,31.80
2022-08-12T13:16:36.392Z,31.60
2022-08-12T13:19:16.287Z,31.20
2022-08-12T13:22:17.882Z,30.80
2022-08-12T13:24:55.678Z,30.60
2022-08-12T13:27:46.245Z,30.60
2022-08-12T13:30:23.823Z,30.80
2022-08-12T13:32:59.842Z,31.10
2022-08-12T13:36:06.180Z,31.50
2022-08-12T13:38:41.138Z,31.80
2022-08-12T13:41:36.913Z,31.90
2022-08-12T13:44:11.356Z,31.80
2022-08-12T13:46:44.759Z,31.50
2022-08-12T13:49:54.543Z,31.40
2022-08-12T13:52:25.855Z,31.40
2022-08-12T13:55:00.358Z,31.70
2022-08-12T13:57:44.817Z,31.90
2022-08-12T14:00:19.329Z,32.20
2022-08-12T14:02:53.464Z,32.40
2022-08-12T14:05:37.924Z,32.30
2022-08-12T14:08:21.132Z,32.00
2022-08-12T14:10:55.697Z,31.70
2022-08-12T14:14:05.977Z,31.30
2022-08-12T14:16:47.011Z,31.00
2022-08-12T14:19:23.365Z,30.70
2022-08-12T14:22:04.484Z,30.50
2022-08-12T14:24:42.330Z,30.50
2022-08-12T14:27:14.924Z,30.80
2022-08-12T14:30:15.512Z,31.10
2022-08-12T14:32:49.547Z,31.60
2022-08-12T14:35:44.678Z,32.00
2022-08-12T14:38:30.365Z,32.30
2022-08-12T14:41:07.400Z,32.10
2022-08-12T14:44:04.478Z,31.90
2022-08-12T14:46:36.161Z,31.50
2022-08-12T14:49:27.526Z,31.40
2022-08-12T14:52:44.146Z,31.40
2022-08-12T14:57:57.361Z,31.90
2022-08-12T15:00:52.477Z,32.10
2022-08-12T15:03:52.855Z,31.80
2022-08-12T15:06:44.410Z,31.40
2022-08-12T15:09:29.343Z,31.20
2022-08-12T15:12:03.597Z,30.90
2022-08-12T15:14:45.717Z,30.60
2022-08-12T15:17:38.234Z,30.40
2022-08-12T15:20:33.148Z,30.40
2022-08-12T15:23:17.882Z,30.60
2022-08-12T15:25:59.787Z,30.90
2022-08-12T15:28:43.043Z,31.00
2022-08-12T15:31:28.276Z,31.10
2022-08-12T15:34:18.297Z,31.30
2022-08-12T15:36:55.188Z,31.20
2022-08-12T15:39:27.936Z,31.30
2022-08-12T15:42:02.062Z,31.30
2022-08-12T15:44:37.811Z,31.30
2022-08-12T15:47:16.357Z,31.40
2022-08-12T15:50:00.647Z,31.50
2022-08-12T15:52:33.467Z,31.60
2022-08-12T15:55:11.667Z,31.50
2022-08-12T15:57:55.463Z,31.50
2022-08-12T16:00:35.882Z,31.50
2022-08-12T16:03:14.379Z,31.50
2022-08-12T16:06:16.942Z,31.30
2022-08-12T16:08:49.089Z,31.10
2022-08-12T16:11:22.211Z,30.80
2022-08-12T16:13:54.226Z,30.60
2022-08-12T16:16:27.524Z,30.50
2022-08-12T16:19:18.905Z,30.50
2022-08-12T16:21:59.653Z,30.40
2022-08-12T16:24:38.973Z,30.50
2022-08-12T16:27:15.493Z,30.40
2022-08-12T16:29:57.062Z,30.10
2022-08-12T16:32:35.883Z,29.90
2022-08-12T16:35:16.462Z,29.60
2022-08-12T16:38:24.168Z,29.40
2022-08-12T16:40:46.271Z,29.20
2022-08-12T16:43:41.041Z,29.20
2022-08-12T16:46:31.639Z,29.20
2022-08-12T16:49:13.212Z,29.20
2022-08-12T16:51:47.488Z,29.20
2022-08-12T16:54:26.558Z,29.10
2022-08-12T16:57:09.738Z,29.00
2022-08-12T16:59:53.413Z,28.90
2022-08-12T17:02:34.050Z,28.70
2022-08-12T17:05:14.861Z,28.60
2022-08-12T17:07:52.873Z,28.50
2022-08-12T17:10:36.120Z,28.40
2022-08-12T17:13:10.678Z,28.30
2022-08-12T17:15:57.003Z,28.10
2022-08-12T17:18:45.472Z,28.00
2022-08-12T17:21:40.887Z,27.90
2022-08-12T17:24:28.979Z,27.80
2022-08-12T17:27:16.337Z,27.70
2022-08-12T17:30:06.277Z,27.60
2022-08-12T17:32:46.311Z,27.40
2022-08-12T17:35:36.605Z,27.30
2022-08-12T17:38:11.960Z,27.20
2022-08-12T17:40:49.211Z,27.10
2022-08-12T17:43:57.425Z,27.10
2022-08-12T17:46:23.977Z,27.00
2022-08-12T17:49:19.436Z,26.90
2022-08-12T17:52:02.352Z,26.90
2022-08-12T17:54:36.759Z,26.80
2022-08-12T17:57:16.331Z,26.70
2022-08-12T17:59:51.550Z,26.70
2022-08-12T18:02:29.944Z,26.60
2022-08-12T18:05:09.963Z,26.60
2022-08-12T18:07:45.021Z,26.50
2022-08-12T18:10:42.901Z,26.40
2022-08-12T18:13:41.009Z,26.30
2022-08-12T18:16:32.061Z,26.30
2022-08-12T18:19:07.572Z,26.20
2022-08-12T18:22:02.004Z,26.10
2022-08-12T18:24:39.251Z,26.10
2022-08-12T18:27:30.054Z,26.00
2022-08-12T18:30:07.235Z,25.90
2022-08-12T18:32:58.484Z,25.80
2022-08-12T18:35:53.164Z,25.70
2022-08-12T18:38:27.963Z,25.60
2022-08-12T18:41:22.526Z,25.50
2022-08-12T18:44:10.185Z,25.40
2022-08-12T18:46:54.205Z,25.30
2022-08-12T18:49:38.762Z,25.20
2022-08-12T18:52:18.495Z,25.10
2022-08-12T18:54:55.727Z,25.00
2022-08-12T18:57:45.628Z,24.90
2022-08-12T19:00:36.926Z,24.80
2022-08-12T19:03:23.583Z,24.70
2022-08-12T19:06:10.409Z,24.60
2022-08-12T19:08:49.318Z,24.40
2022-08-12T19:11:45.243Z,24.40
2022-08-12T19:14:40.243Z,24.30
2022-08-12T19:17:14.170Z,24.20
2022-08-12T19:19:48.642Z,24.10
2022-08-12T19:22:28.984Z,24.00
2022-08-12T19:26:00.401Z,23.90
2022-08-12T19:28:19.469Z,23.80
2022-08-12T19:31:56.386Z,23.70
2022-08-12T19:37:38.658Z,23.60
2022-08-12T19:40:33.604Z,23.60
2022-08-12T19:43:20.194Z,23.50
2022-08-12T19:45:56.641Z,23.50
2022-08-12T19:48:32.738Z,23.50
2022-08-12T19:51:22.523Z,23.40
2022-08-12T19:54:05.859Z,23.40
2022-08-12T19:56:41.226Z,23.30
2022-08-12T19:59:42.990Z,23.30
2022-08-12T20:02:34.756Z,23.20
2022-08-12T20:06:04.635Z,23.20
2022-08-12T20:07:59.572Z,23.10
2022-08-12T20:10:46.445Z,23.00
2022-08-12T20:13:37.402Z,22.90
2022-08-12T20:16:26.728Z,22.90
2022-08-12T20:19:13.054Z,22.80
2022-08-12T20:21:45.453Z,22.70
2022-08-12T20:24:19.387Z,22.60
2022-08-12T20:26:52.262Z,22.60
2022-08-12T20:29:26.294Z,22.50
2022-08-12T20:32:09.450Z,22.50
2022-08-12T20:34:44.261Z,22.40
2022-08-12T20:37:18.901Z,22.40
2022-08-12T20:40:04.383Z,22.30
2022-08-12T20:42:38.230Z,22.30
2022-08-12T20:45:10.964Z,22.20
2022-08-12T20:47:47.347Z,22.20
2022-08-12T20:50:36.510Z,22.10
2022-08-12T20:53:14.045Z,22.10
2022-08-12T20:55:56.970Z,22.10
2022-08-12T20:58:29.324Z,22.00
2022-08-12T21:01:01.520Z,22.00
2022-08-12T21:03:58.105Z,22.00
2022-08-12T21:06:57.078Z,21.90
2022-08-12T21:09:35.535Z,21.90
2022-08-12T21:12:31.055Z,21.90
2022-08-12T21:15:23.893Z,21.80
2022-08-12T21:18:09.323Z,21.80
2022-08-12T21:20:50.672Z,21.70
2022-08-12T21:23:25.601Z,21.60
2022-08-12T21:26:06.070Z,21.60
2022-08-12T21:28:58.042Z,21.50
2022-08-12T21:32:46.870Z,21.50
2022-08-12T21:34:34.099Z,21.40
2022-08-12T21:37:13.078Z,21.30
2022-08-12T21:40:13.281Z,21.20
2022-08-12T21:42:45.923Z,21.10
2022-08-12T21:45:47.989Z,21.00
2022-08-12T21:48:11.910Z,21.00
2022-08-12T21:50:44.922Z,21.00
2022-08-12T21:53:31.713Z,20.90
2022-08-12T21:56:34.010Z,20.90
2022-08-12T21:59:14.632Z,20.80
2022-08-12T22:01:49.667Z,20.80
2022-08-12T22:04:42.253Z,20.80
2022-08-12T22:07:46.046Z,20.70
2022-08-12T22:10:20.444Z,20.70
2022-08-12T22:13:00.999Z,20.60
2022-08-12T22:15:33.479Z,20.60
2022-08-12T22:18:07.779Z,20.50
2022-08-12T22:20:42.088Z,20.50
2022-08-12T22:23:21.791Z,20.50
2022-08-12T22:26:09.482Z,20.40
2022-08-12T22:29:06.519Z,20.40
2022-08-12T22:31:58.583Z,20.30
2022-08-12T22:34:33.308Z,20.30
2022-08-12T22:37:05.940Z,20.20
2022-08-12T22:39:46.915Z,20.20
2022-08-12T22:42:39.975Z,20.20
2022-08-12T22:45:59.063Z,20.20
2022-08-12T22:48:52.551Z,20.20
2022-08-12T22:51:28.425Z,20.20
2022-08-12T22:54:35.921Z,20.20
2022-08-12T22:57:03.478Z,20.10
2022-08-12T22:59:55.210Z,20.10
2022-08-12T23:02:34.778Z,20.10
2022-08-12T23:05:10.332Z,20.00
2022-08-12T23:07:58.736Z,20.00
2022-08-12T23:10:32.199Z,20.00
2022-08-12T23:13:23.763Z,20.00
2022-08-12T23:16:29.381Z,19.90
2022-08-12T23:19:17.961Z,19.90
2022-08-12T23:22:06.225Z,19.90
2022-08-12T23:24:53.862Z,19.80
2022-08-12T23:27:51.238Z,19.80
2022-08-12T23:30:44.702Z,19.70
2022-08-12T23:33:59.682Z,19.70
2022-08-12T23:36:12.749Z,19.70
2022-08-12T23:39:01.745Z,19.70
2022-08-12T23:41:56.536Z,19.60
2022-08-12T23:44:31.493Z,19.60
2022-08-12T23:47:10.247Z,19.50
2022-08-12T23:49:58.617Z,19.40
2022-08-12T23:52:33.943Z,19.40
2022-08-12T23:55:24.750Z,19.30
2022-08-12T23:58:17.716Z,19.30
